Time;durP1;ratioP1;P1;durP2;ratioP2;P2;SDS_P1;SDS_P2;PMS_P1;PMS_P2;Temp;Humidity;BMP_temperature;BMP_pressure;BME280_temperature;BME280_humidity;BME280_pressure;Samples;Min_cycle;Max_cycle;Signal;HPM_P1;HPM_P2
2021/11/10 00:00:13;;;;;;;16.83;6.93;;;22.50;48.30;;;;;;5201457;28;20047;-58
2021/11/10 00:02:46;;;;;;;11.15;7.32;;;22.60;48.40;;;;;;5240806;28;20058;-52
2021/11/10 00:05:18;;;;;;;7.70;6.60;;;22.50;48.30;;;;;;5247973;28;20055;-56
2021/11/10 00:07:51;;;;;;;8.48;6.60;;;22.50;48.30;;;;;;5251941;28;20504;-55
2021/11/10 00:10:23;;;;;;;10.55;6.90;;;22.50;48.30;;;;;;5249947;28;21277;-53
2021/11/10 00:13:02;;;;;;;9.45;6.72;;;22.50;48.20;;;;;;5242054;28;20076;-54
2021/11/10 00:15:34;;;;;;;9.68;6.28;;;22.50;48.20;;;;;;5254158;28;20065;-53
2021/11/10 00:18:07;;;;;;;9.85;6.25;;;22.50;48.20;;;;;;5250691;28;21025;-52
2021/11/10 00:20:39;;;;;;;9.60;6.80;;;22.50;48.10;;;;;;5246569;28;20420;-54
2021/11/10 00:23:12;;;;;;;8.15;5.85;;;22.50;48.40;;;;;;5231727;28;20079;-54
2021/11/10 00:25:46;;;;;;;10.32;6.47;;;22.50;48.10;;;;;;5243000;28;20055;-53
2021/11/10 00:28:19;;;;;;;8.27;6.53;;;22.50;48.20;;;;;;5242974;28;20046;-50
2021/11/10 00:30:51;;;;;;;11.85;6.95;;;22.50;48.10;;;;;;5245706;28;20412;-49
2021/11/10 00:33:24;;;;;;;9.05;6.05;;;22.50;48.20;;;;;;5215655;28;20059;-55
2021/11/10 00:35:56;;;;;;;11.18;7.22;;;22.50;48.10;;;;;;5240892;28;20424;-55
2021/11/10 00:38:29;;;;;;;9.45;6.22;;;22.50;48.10;;;;;;5244527;28;20518;-55
2021/11/10 00:41:02;;;;;;;10.27;5.88;;;22.50;48.20;;;;;;5250072;27;20053;-55
2021/11/10 00:43:35;;;;;;;11.20;6.55;;;22.50;48.10;;;;;;5241065;28;20059;-55
2021/11/10 00:46:08;;;;;;;9.27;6.70;;;22.40;48.20;;;;;;5221874;28;20062;-53
2021/11/10 00:48:40;;;;;;;11.48;6.28;;;22.40;48.10;;;;;;5246558;28;20039;-52
2021/11/10 00:51:13;;;;;;;7.47;5.90;;;22.50;48.10;;;;;;5229475;28;20043;-53
2021/11/10 00:53:45;;;;;;;9.15;6.03;;;22.40;48.10;;;;;;5246526;28;20059;-54
2021/11/10 00:56:18;;;;;;;7.13;5.57;;;22.40;48.00;;;;;;5248342;28;20249;-54
2021/11/10 00:58:51;;;;;;;8.57;6.03;;;22.40;48.10;;;;;;5247088;28;20070;-51
2021/11/10 01:01:23;;;;;;;6.77;5.43;;;22.40;48.10;;;;;;5219650;28;20564;-56
2021/11/10 01:03:56;;;;;;;10.18;5.97;;;22.40;48.00;;;;;;5229061;28;20305;-50
2021/11/10 01:06:33;;;;;;;9.30;6.00;;;22.40;48.00;;;;;;5244045;28;20055;-56
2021/11/10 01:09:08;;;;;;;7.70;6.00;;;22.40;48.00;;;;;;5233035;28;20090;-55
2021/11/10 01:11:41;;;;;;;8.27;6.53;;;22.40;48.00;;;;;;5242314;28;20050;-50
2021/11/10 01:14:16;;;;;;;7.50;5.47;;;22.40;48.00;;;;;;5220698;28;20048;-53
2021/11/10 01:16:50;;;;;;;6.38;5.10;;;22.40;47.90;;;;;;5232446;28;20051;-52
2021/11/10 01:19:28;;;;;;;8.32;5.80;;;22.40;47.80;;;;;;5222771;28;20044;-56
2021/11/10 01:22:01;;;;;;;9.27;6.20;;;22.40;47.80;;;;;;5242907;28;22148;-52
2021/11/10 01:24:34;;;;;;;8.05;5.22;;;22.40;47.80;;;;;;5244284;28;20079;-54
2021/11/10 01:27:07;;;;;;;8.00;5.03;;;22.40;47.80;;;;;;5250213;27;20044;-55
2021/11/10 01:29:41;;;;;;;8.65;5.32;;;22.40;47.80;;;;;;5248446;28;20044;-56
2021/11/10 01:32:14;;;;;;;5.70;4.93;;;22.40;47.80;;;;;;5245240;28;20052;-52
2021/11/10 01:34:49;;;;;;;7.95;5.68;;;22.40;47.70;;;;;;5221576;28;20044;-56
2021/11/10 01:37:23;;;;;;;6.70;4.85;;;22.40;47.70;;;;;;5216524;28;20039;-54
2021/11/10 01:39:56;;;;;;;11.80;4.97;;;22.40;47.70;;;;;;5246862;28;20058;-52
2021/11/10 01:42:30;;;;;;;8.00;5.47;;;22.40;47.70;;;;;;5224112;28;20055;-51
2021/11/10 01:45:03;;;;;;;6.18;4.75;;;22.30;47.70;;;;;;5251494;28;20040;-52
2021/11/10 01:47:38;;;;;;;8.18;5.00;;;22.40;47.80;;;;;;5245738;28;20043;-56
2021/11/10 01:50:13;;;;;;;7.53;4.80;;;22.40;47.80;;;;;;5251321;28;20074;-53
2021/11/10 01:52:48;;;;;;;7.90;4.90;;;22.40;47.70;;;;;;5238329;28;20043;-55
2021/11/10 01:55:22;;;;;;;8.18;5.20;;;22.40;47.80;;;;;;5254770;28;20039;-52
2021/11/10 01:57:55;;;;;;;6.20;4.75;;;22.40;47.70;;;;;;5233117;28;20419;-52
2021/11/10 02:00:30;;;;;;;7.47;4.57;;;22.30;47.70;;;;;;5226048;28;20054;-53
2021/11/10 02:03:11;;;;;;;;;;;22.40;47.70;;;;;;5240405;28;20491;-52
2021/11/10 02:05:50;;;;;;;7.05;5.10;;;22.30;47.60;;;;;;5253791;27;19934;-54
2021/11/10 02:08:41;;;;;;;5.63;4.63;;;22.30;47.70;;;;;;5253759;27;20157;-52
2021/11/10 02:11:19;;;;;;;6.18;4.80;;;22.30;47.70;;;;;;5251204;28;20039;-56
2021/11/10 02:14:02;;;;;;;7.68;4.72;;;22.30;47.60;;;;;;5235556;28;21440;-54
2021/11/10 02:16:39;;;;;;;9.00;4.60;;;22.30;47.60;;;;;;5229403;28;20066;-57
2021/11/10 02:19:17;;;;;;;5.35;4.10;;;22.30;47.70;;;;;;5235236;28;20524;-54
2021/11/10 02:21:57;;;;;;;13.25;4.90;;;22.30;47.60;;;;;;5230933;28;20144;-56
2021/11/10 02:24:32;;;;;;;6.10;4.47;;;22.30;47.60;;;;;;5255050;28;20062;-54
2021/11/10 02:27:14;;;;;;;6.70;4.38;;;22.30;47.60;;;;;;5252420;28;20039;-55
2021/11/10 02:29:49;;;;;;;7.25;4.38;;;22.30;47.60;;;;;;5228119;28;20044;-56
2021/11/10 02:32:22;;;;;;;6.82;4.30;;;22.30;47.60;;;;;;5246287;27;20043;-56
2021/11/10 02:34:54;;;;;;;8.60;4.90;;;22.30;47.60;;;;;;5238499;28;20044;-53
2021/11/10 02:37:32;;;;;;;6.25;4.63;;;22.30;47.50;;;;;;5232478;28;20970;-54
2021/11/10 02:40:05;;;;;;;6.72;4.40;;;22.30;47.60;;;;;;5246120;28;20518;-56
2021/11/10 02:42:40;;;;;;;6.80;4.88;;;22.30;47.50;;;;;;5229378;27;20497;-53
2021/11/10 02:45:13;;;;;;;8.50;5.00;;;22.30;47.50;;;;;;5231980;28;20052;-53
2021/11/10 02:47:46;;;;;;;5.73;4.43;;;22.30;47.50;;;;;;5240747;27;20048;-55
2021/11/10 02:50:19;;;;;;;8.02;4.60;;;22.30;47.50;;;;;;5246065;27;20410;-54
2021/11/10 02:52:51;;;;;;;4.90;4.05;;;22.20;47.50;;;;;;5251184;28;20044;-51
2021/11/10 02:55:24;;;;;;;8.07;5.18;;;22.30;47.50;;;;;;5251204;27;21349;-53
2021/11/10 02:57:57;;;;;;;5.68;4.20;;;22.20;47.50;;;;;;5245724;28;20495;-51
2021/11/10 03:00:31;;;;;;;5.35;4.30;;;22.20;47.40;;;;;;5225381;28;20048;-55
2021/11/10 03:03:05;;;;;;;5.80;3.63;;;22.20;47.40;;;;;;5241983;28;20047;-55
2021/11/10 03:05:46;;;;;;;5.60;4.28;;;22.20;47.40;;;;;;5221276;28;20544;-56
2021/11/10 03:08:20;;;;;;;7.85;4.28;;;22.20;47.40;;;;;;5226223;28;20036;-52
2021/11/10 03:10:58;;;;;;;7.10;4.13;;;22.20;47.40;;;;;;5222201;28;20423;-53
2021/11/10 03:13:33;;;;;;;5.47;4.43;;;22.20;47.40;;;;;;5226631;28;20491;-53
2021/11/10 03:16:06;;;;;;;7.00;4.17;;;22.20;47.30;;;;;;5224969;28;20066;-49
2021/11/10 03:18:38;;;;;;;5.50;4.10;;;22.20;47.30;;;;;;5228507;28;20322;-53
2021/11/10 03:21:12;;;;;;;5.28;3.75;;;22.20;47.30;;;;;;5237356;27;20050;-55
2021/11/10 03:23:45;;;;;;;5.70;4.35;;;22.20;47.30;;;;;;5245464;28;20043;-55
2021/11/10 03:26:20;;;;;;;6.28;4.03;;;22.20;47.30;;;;;;5227098;28;20039;-55
2021/11/10 03:28:52;;;;;;;5.53;4.32;;;22.20;47.20;;;;;;5252491;28;20157;-54
2021/11/10 03:31:25;;;;;;;5.90;4.07;;;22.20;47.20;;;;;;5218576;28;20055;-54
2021/11/10 03:33:58;;;;;;;6.65;3.75;;;22.20;47.30;;;;;;5220984;28;20035;-55
2021/11/10 03:36:35;;;;;;;6.78;4.20;;;22.20;47.20;;;;;;5227145;27;20051;-51
2021/11/10 03:39:12;;;;;;;11.20;3.70;;;22.20;47.20;;;;;;5245458;28;20126;-52
2021/11/10 03:41:48;;;;;;;9.13;4.05;;;22.20;47.20;;;;;;5237875;27;20043;-52
2021/11/10 03:44:22;;;;;;;6.30;3.80;;;22.20;47.20;;;;;;5231187;28;20047;-53
2021/11/10 03:46:55;;;;;;;4.93;4.05;;;22.20;47.20;;;;;;5223462;28;20040;-54
2021/11/10 03:49:27;;;;;;;7.70;4.07;;;22.20;47.20;;;;;;5226573;28;20058;-52
2021/11/10 03:52:00;;;;;;;6.23;4.03;;;22.20;47.20;;;;;;5228940;28;20050;-55
2021/11/10 03:54:34;;;;;;;7.18;4.10;;;22.20;47.10;;;;;;5235200;28;20082;-53
2021/11/10 03:57:06;;;;;;;7.88;4.35;;;22.20;47.10;;;;;;5252456;28;20054;-51
2021/11/10 03:59:39;;;;;;;5.75;3.95;;;22.20;47.20;;;;;;5219388;28;20059;-53
2021/11/10 04:02:14;;;;;;;5.17;3.43;;;22.20;47.10;;;;;;5239530;28;20040;-55
2021/11/10 04:04:47;;;;;;;5.03;3.30;;;22.20;47.10;;;;;;5257447;28;20044;-54
2021/11/10 04:07:21;;;;;;;7.13;3.53;;;22.20;47.20;;;;;;5243857;28;20427;-54
2021/11/10 04:09:53;;;;;;;7.00;3.47;;;22.20;47.10;;;;;;5253083;28;20032;-51
2021/11/10 04:12:26;;;;;;;5.85;3.97;;;22.20;47.10;;;;;;5234859;28;20455;-51
2021/11/10 04:14:58;;;;;;;5.13;3.40;;;22.20;47.10;;;;;;5259142;28;20042;-55
2021/11/10 04:17:31;;;;;;;9.38;4.32;;;22.20;47.00;;;;;;5238476;28;20043;-55
2021/11/10 04:20:06;;;;;;;6.57;3.87;;;22.20;47.00;;;;;;5257149;28;20419;-56
2021/11/10 04:22:39;;;;;;;4.45;3.40;;;22.20;47.10;;;;;;5257718;28;20865;-55
2021/11/10 04:25:14;;;;;;;10.40;4.53;;;22.20;47.10;;;;;;5256140;28;20126;-55
2021/11/10 04:27:47;;;;;;;5.10;3.78;;;22.20;47.10;;;;;;5222145;28;20424;-53
2021/11/10 04:30:20;;;;;;;5.93;3.70;;;22.20;47.10;;;;;;5236598;28;20032;-54
2021/11/10 04:32:53;;;;;;;8.52;3.65;;;22.20;47.10;;;;;;5241091;28;20039;-51
2021/11/10 04:35:26;;;;;;;5.13;3.47;;;22.20;47.00;;;;;;5259209;27;20044;-56
2021/11/10 04:38:00;;;;;;;;;;;22.20;47.00;;;;;;5245969;28;20771;-54
2021/11/10 04:40:33;;;;;;;4.32;3.47;;;22.10;46.90;;;;;;5218750;28;20395;-51
2021/11/10 04:43:05;;;;;;;7.60;3.10;;;22.20;47.00;;;;;;5238416;28;20047;-55
2021/11/10 04:45:48;;;;;;;4.82;3.67;;;22.20;47.00;;;;;;5235295;28;20422;-54
2021/11/10 04:48:20;;;;;;;5.20;3.47;;;22.20;47.10;;;;;;5240351;27;20503;-54
2021/11/10 04:50:53;;;;;;;11.30;3.78;;;22.20;47.00;;;;;;5245526;28;20055;-54
2021/11/10 04:53:25;;;;;;;5.22;3.35;;;22.20;47.10;;;;;;5231012;28;20055;-56
2021/11/10 04:55:57;;;;;;;9.35;3.40;;;22.20;47.10;;;;;;5231015;28;20031;-56
2021/11/10 04:58:31;;;;;;;5.13;3.40;;;22.20;47.10;;;;;;5246961;28;20044;-52
2021/11/10 05:01:04;;;;;;;;;;;22.20;47.00;;;;;;5236539;28;20040;-57
2021/11/10 05:03:36;;;;;;;6.13;3.13;;;22.10;47.00;;;;;;5211524;28;19935;-56
2021/11/10 05:06:09;;;;;;;3.90;2.92;;;22.10;47.00;;;;;;5217579;28;20036;-52
2021/11/10 05:08:42;;;;;;;4.53;3.50;;;22.10;46.90;;;;;;5216567;28;20040;-55
2021/11/10 05:11:15;;;;;;;6.43;3.53;;;22.10;46.90;;;;;;5225195;28;21037;-55
2021/11/10 05:13:49;;;;;;;5.03;3.00;;;22.10;47.00;;;;;;5220565;28;20040;-52
2021/11/10 05:16:23;;;;;;;5.90;3.42;;;22.10;47.10;;;;;;5233501;28;20353;-51
2021/11/10 05:18:59;;;;;;;8.75;3.20;;;22.20;47.20;;;;;;5246690;28;20051;-52
2021/11/10 05:21:32;;;;;;;5.85;3.22;;;22.20;47.20;;;;;;5235706;28;20431;-56
2021/11/10 05:24:05;;;;;;;6.43;2.80;;;22.20;47.40;;;;;;5198493;28;20044;-52
2021/11/10 05:26:38;;;;;;;5.03;3.17;;;22.20;47.50;;;;;;5230409;28;20054;-54
2021/11/10 05:29:10;;;;;;;4.00;2.97;;;22.20;47.50;;;;;;5238816;28;20082;-57
2021/11/10 05:31:43;;;;;;;6.97;2.95;;;22.20;47.60;;;;;;5243151;28;20040;-57
2021/11/10 05:34:16;;;;;;;7.05;3.40;;;22.20;47.70;;;;;;5235712;28;20039;-57
2021/11/10 05:36:48;;;;;;;5.10;3.10;;;22.20;47.80;;;;;;5236809;28;20047;-55
2021/11/10 05:39:21;;;;;;;4.85;3.00;;;22.20;47.80;;;;;;5225899;28;20047;-55
2021/11/10 05:41:54;;;;;;;7.00;3.50;;;22.20;47.80;;;;;;5237238;28;20050;-56
2021/11/10 05:44:26;;;;;;;6.73;2.83;;;22.20;47.80;;;;;;5217394;28;20488;-57
2021/11/10 05:46:59;;;;;;;5.40;3.20;;;22.30;47.80;;;;;;5228083;28;20302;-53
2021/11/10 05:49:31;;;;;;;5.15;3.20;;;22.30;47.90;;;;;;5232532;28;20046;-55
2021/11/10 05:52:05;;;;;;;3.83;3.03;;;22.30;47.90;;;;;;5230479;28;20098;-57
2021/11/10 05:54:39;;;;;;;5.53;3.35;;;22.30;47.90;;;;;;5234883;28;20047;-57
2021/11/10 05:57:13;;;;;;;12.63;3.35;;;22.40;48.00;;;;;;5208455;28;20051;-57
2021/11/10 05:59:46;;;;;;;9.50;3.85;;;22.40;48.10;;;;;;5232602;28;20396;-59
2021/11/10 06:02:20;;;;;;;11.50;3.90;;;22.40;47.90;;;;;;5218916;28;20043;-59
2021/11/10 06:04:53;;;;;;;17.65;3.50;;;22.40;48.30;;;;;;5221425;28;20576;-57
2021/11/10 06:07:26;;;;;;;22.42;3.80;;;22.50;48.50;;;;;;5226204;28;20769;-58
2021/11/10 06:09:58;;;;;;;15.68;4.18;;;22.40;48.80;;;;;;5218025;28;20534;-57
2021/11/10 06:12:31;;;;;;;17.25;3.65;;;22.50;48.80;;;;;;5228768;28;20067;-58
2021/11/10 06:15:04;;;;;;;14.48;3.50;;;22.50;48.70;;;;;;5236785;28;20778;-57
2021/11/10 06:17:37;;;;;;;17.65;3.60;;;22.50;48.70;;;;;;5201093;28;20047;-57
2021/11/10 06:20:10;;;;;;;10.93;3.65;;;22.50;48.70;;;;;;5246176;28;20055;-58
2021/11/10 06:22:43;;;;;;;13.35;3.42;;;22.50;48.70;;;;;;5247159;28;20051;-58
2021/11/10 06:25:24;;;;;;;11.15;3.47;;;22.50;48.60;;;;;;5257426;28;20055;-55
2021/11/10 06:27:57;;;;;;;8.47;3.47;;;22.50;48.60;;;;;;5226933;28;20094;-56
2021/11/10 06:30:30;;;;;;;11.37;3.90;;;22.50;48.60;;;;;;5226575;28;20062;-58
2021/11/10 06:33:02;;;;;;;8.82;3.83;;;22.50;48.60;;;;;;5236593;28;20996;-58
2021/11/10 06:35:35;;;;;;;15.57;3.50;;;22.50;48.60;;;;;;5238922;28;20407;-56
2021/11/10 06:38:07;;;;;;;12.60;3.97;;;22.50;48.60;;;;;;5239814;28;20126;-57
2021/11/10 06:40:40;;;;;;;8.35;3.38;;;22.50;48.70;;;;;;5242306;28;20061;-56
2021/11/10 06:43:13;;;;;;;7.63;3.72;;;22.50;48.60;;;;;;5267539;28;20465;-59
2021/11/10 06:45:45;;;;;;;14.88;3.72;;;22.60;48.70;;;;;;5268515;28;20040;-57
2021/11/10 06:48:18;;;;;;;10.50;3.00;;;22.60;48.60;;;;;;5250675;28;20048;-57
2021/11/10 06:50:51;;;;;;;11.50;3.35;;;22.60;48.70;;;;;;5258098;28;20035;-56
2021/11/10 06:53:23;;;;;;;9.07;3.40;;;22.60;48.60;;;;;;5266432;28;20050;-56
2021/11/10 06:55:55;;;;;;;11.48;3.55;;;22.60;48.60;;;;;;5265547;28;20050;-56
2021/11/10 06:58:28;;;;;;;9.52;3.10;;;22.60;48.60;;;;;;5264756;28;20496;-56
2021/11/10 07:01:00;;;;;;;5.13;2.93;;;22.60;48.70;;;;;;5258412;28;20985;-57
2021/11/10 07:03:34;;;;;;;8.27;4.03;;;22.60;48.60;;;;;;5254931;27;20431;-56
2021/11/10 07:06:07;;;;;;;17.20;2.90;;;22.60;48.80;;;;;;5250914;28;20052;-56
2021/11/10 07:08:42;;;;;;;8.93;3.42;;;22.60;49.00;;;;;;5257283;28;20262;-56
2021/11/10 07:11:14;;;;;;;9.63;3.75;;;22.60;49.00;;;;;;5252479;28;20550;-55
2021/11/10 07:13:47;;;;;;;16.33;4.40;;;22.60;48.80;;;;;;5262846;28;20791;-56
2021/11/10 07:16:19;;;;;;;14.75;3.75;;;22.60;48.80;;;;;;5261382;28;20047;-57
2021/11/10 07:18:52;;;;;;;11.20;3.63;;;22.60;48.70;;;;;;5249449;28;20600;-54
2021/11/10 07:21:25;;;;;;;8.77;3.33;;;22.60;48.70;;;;;;5269945;28;20051;-56
2021/11/10 07:23:57;;;;;;;;;;;22.60;48.60;;;;;;5269756;28;20051;-56
2021/11/10 07:26:31;;;;;;;10.73;4.03;;;22.60;48.50;;;;;;5266415;28;20391;-56
2021/11/10 07:29:04;;;;;;;7.20;2.95;;;22.60;48.50;;;;;;5263506;28;20070;-57
2021/11/10 07:31:37;;;;;;;12.55;3.30;;;22.70;48.50;;;;;;5254882;28;20636;-58
2021/11/10 07:34:10;;;;;;;12.18;3.28;;;22.60;48.40;;;;;;5261071;28;20047;-56
2021/11/10 07:36:42;;;;;;;10.50;3.42;;;22.60;48.40;;;;;;5266604;28;20534;-54
2021/11/10 07:39:15;;;;;;;7.53;3.75;;;22.70;48.50;;;;;;5266596;28;20055;-57
2021/11/10 07:41:50;;;;;;;7.43;3.75;;;22.60;48.40;;;;;;5245822;28;20048;-55
2021/11/10 07:44:23;;;;;;;6.88;3.03;;;22.70;48.40;;;;;;5265032;28;20051;-56
2021/11/10 07:47:07;;;;;;;5.28;3.25;;;22.70;49.10;;;;;;5266429;28;20051;-54
2021/11/10 07:49:39;;;;;;;13.38;3.25;;;22.70;48.40;;;;;;5266838;28;20483;-59
2021/11/10 07:52:13;;;;;;;8.27;3.60;;;22.70;48.40;;;;;;5260027;28;20542;-61
2021/11/10 07:54:45;;;;;;;;;;;22.70;48.40;;;;;;5264014;28;20661;-57
2021/11/10 07:57:18;;;;;;;6.57;2.88;;;22.60;48.30;;;;;;5246716;28;20006;-56
2021/11/10 07:59:50;;;;;;;13.60;3.33;;;22.60;48.30;;;;;;5251163;28;20526;-59
2021/11/10 08:02:22;;;;;;;5.38;3.20;;;22.70;48.40;;;;;;5259650;28;20031;-56
2021/11/10 08:04:55;;;;;;;8.85;3.58;;;22.70;48.40;;;;;;5266129;28;20412;-58
2021/11/10 08:07:32;;;;;;;9.00;3.50;;;22.70;48.30;;;;;;5263380;28;20040;-55
2021/11/10 08:10:05;;;;;;;10.52;3.05;;;22.70;48.40;;;;;;5273029;28;20431;-57
2021/11/10 08:12:38;;;;;;;5.47;3.30;;;22.70;48.30;;;;;;5256465;28;20043;-57
2021/11/10 08:15:12;;;;;;;6.57;3.20;;;22.70;48.30;;;;;;5264679;28;20059;-55
2021/11/10 08:17:44;;;;;;;10.48;3.13;;;22.70;48.40;;;;;;5270141;28;20055;-56
2021/11/10 08:20:17;;;;;;;6.97;3.00;;;22.70;48.40;;;;;;5265715;28;20922;-58
2021/11/10 08:22:50;;;;;;;7.28;3.30;;;22.70;48.40;;;;;;5267673;28;20036;-55
2021/11/10 08:25:23;;;;;;;10.00;3.72;;;22.70;48.40;;;;;;5265513;28;20051;-56
2021/11/10 08:27:56;;;;;;;7.63;3.88;;;22.70;48.40;;;;;;5264369;28;20900;-56
2021/11/10 08:30:28;;;;;;;9.50;3.63;;;22.70;48.30;;;;;;5253250;28;20326;-56
2021/11/10 08:33:00;;;;;;;13.80;3.63;;;22.70;48.30;;;;;;5263614;28;20040;-55
2021/11/10 08:35:33;;;;;;;9.27;3.13;;;22.70;48.40;;;;;;5262258;28;20044;-58
2021/11/10 08:38:06;;;;;;;4.90;3.00;;;22.70;48.40;;;;;;5253357;28;20054;-57
2021/11/10 08:40:39;;;;;;;9.33;3.30;;;22.70;48.40;;;;;;5267717;28;20054;-58
2021/11/10 08:43:12;;;;;;;5.60;3.47;;;22.70;48.40;;;;;;5247694;28;20044;-56
2021/11/10 08:45:47;;;;;;;6.05;3.22;;;22.70;48.40;;;;;;5266949;28;20798;-55
2021/11/10 08:48:21;;;;;;;10.07;3.53;;;22.70;48.40;;;;;;5267510;28;20580;-55
2021/11/10 08:50:55;;;;;;;7.75;3.60;;;22.70;48.40;;;;;;5270280;28;20054;-55
2021/11/10 08:53:27;;;;;;;8.02;3.28;;;22.70;48.40;;;;;;5268630;28;20039;-55
2021/11/10 08:56:03;;;;;;;;;;;22.70;48.40;;;;;;5232549;28;20056;-52
2021/11/10 08:58:35;;;;;;;5.78;3.13;;;22.70;48.40;;;;;;5241129;28;20323;-59
2021/11/10 09:01:08;;;;;;;4.95;2.97;;;22.70;48.40;;;;;;5261491;28;20368;-56
2021/11/10 09:03:41;;;;;;;5.17;3.10;;;22.70;48.40;;;;;;5256009;27;20500;-54
2021/11/10 09:06:13;;;;;;;5.45;3.10;;;22.70;48.40;;;;;;5257204;28;20047;-53
2021/11/10 09:08:45;;;;;;;5.28;3.10;;;22.70;48.40;;;;;;5257810;28;20051;-55
2021/11/10 09:11:18;;;;;;;10.73;3.28;;;22.80;48.50;;;;;;5262806;28;20039;-55
2021/11/10 09:13:50;;;;;;;5.75;3.22;;;22.80;48.50;;;;;;5260864;28;20063;-57
2021/11/10 09:16:23;;;;;;;7.95;3.20;;;22.70;48.40;;;;;;5259245;28;20075;-56
2021/11/10 09:18:55;;;;;;;7.82;2.97;;;22.80;48.40;;;;;;5262313;28;20754;-56
2021/11/10 09:21:28;;;;;;;6.20;3.30;;;22.80;48.40;;;;;;5256879;28;20067;-57
2021/11/10 09:24:00;;;;;;;7.68;3.20;;;22.80;48.40;;;;;;5259307;28;20051;-56
2021/11/10 09:26:33;;;;;;;5.53;2.90;;;22.80;48.40;;;;;;5234234;28;20049;-58
2021/11/10 09:29:07;;;;;;;6.57;2.92;;;22.80;48.40;;;;;;5239883;28;20035;-58
2021/11/10 09:31:40;;;;;;;;;;;22.80;48.40;;;;;;5248556;28;20047;-57
2021/11/10 09:34:14;;;;;;;8.13;3.50;;;22.80;48.50;;;;;;5255946;28;19919;-57
2021/11/10 09:36:47;;;;;;;9.13;3.05;;;22.80;48.50;;;;;;5258161;28;20043;-56
2021/11/10 09:39:22;;;;;;;8.45;3.42;;;22.70;48.40;;;;;;5261146;28;21175;-57
2021/11/10 09:41:55;;;;;;;4.28;2.72;;;22.80;48.50;;;;;;5262118;28;20448;-54
2021/11/10 09:44:28;;;;;;;3.67;2.58;;;22.80;48.50;;;;;;5227717;28;20044;-58
2021/11/10 09:47:03;;;;;;;6.43;3.10;;;22.80;48.50;;;;;;5261715;28;20044;-56
2021/11/10 09:49:36;;;;;;;6.53;2.80;;;22.80;48.50;;;;;;5261450;28;20522;-59
2021/11/10 09:52:09;;;;;;;3.70;2.60;;;22.80;48.50;;;;;;5257692;28;20043;-58
2021/11/10 09:54:42;;;;;;;7.50;2.92;;;22.80;48.50;;;;;;5250152;28;20051;-58
2021/11/10 09:57:17;;;;;;;6.40;2.78;;;22.80;48.60;;;;;;5253141;28;20582;-57
2021/11/10 09:59:49;;;;;;;6.75;2.83;;;22.80;48.50;;;;;;5258142;28;20043;-56
2021/11/10 10:02:45;;;;;;;5.13;3.20;;;22.80;48.50;;;;;;5259153;28;20511;-55
2021/11/10 10:05:26;;;;;;;6.18;3.10;;;22.80;48.50;;;;;;5257654;28;20436;-51
2021/11/10 10:08:01;;;;;;;4.72;3.00;;;22.80;48.60;;;;;;5241730;28;20047;-55
2021/11/10 10:10:34;;;;;;;7.97;2.80;;;22.80;48.60;;;;;;5254562;28;20506;-54
2021/11/10 10:13:08;;;;;;;5.18;2.80;;;22.80;48.60;;;;;;5235541;28;20051;-57
2021/11/10 10:15:43;;;;;;;6.50;3.03;;;22.80;48.60;;;;;;5246723;28;20082;-55
2021/11/10 10:18:25;;;;;;;3.88;2.90;;;22.80;48.60;;;;;;5255870;28;20503;-57
2021/11/10 10:21:00;;;;;;;3.75;2.67;;;22.80;48.60;;;;;;5256102;28;20059;-56
2021/11/10 10:23:37;;;;;;;6.82;2.50;;;22.80;48.60;;;;;;5249492;28;20455;-56
2021/11/10 10:26:14;;;;;;;5.20;2.80;;;22.80;48.70;;;;;;5254426;28;20040;-53
2021/11/10 10:28:55;;;;;;;7.53;2.67;;;22.80;48.70;;;;;;5254035;28;20060;-56
2021/11/10 10:31:29;;;;;;;5.57;2.78;;;22.80;48.80;;;;;;5245091;28;20488;-56
2021/11/10 10:34:07;;;;;;;3.83;2.72;;;22.80;48.90;;;;;;5264057;28;20058;-54
2021/11/10 10:36:44;;;;;;;4.38;2.58;;;22.80;48.90;;;;;;5252295;28;20039;-53
2021/11/10 10:39:19;;;;;;;5.22;2.75;;;22.80;48.90;;;;;;5238144;28;20390;-57
2021/11/10 10:41:52;;;;;;;5.25;2.70;;;22.80;49.00;;;;;;5243290;28;20047;-55
2021/11/10 10:44:30;;;;;;;4.00;2.70;;;22.80;49.00;;;;;;5244561;28;20059;-55
2021/11/10 10:47:03;;;;;;;3.53;2.20;;;22.80;49.00;;;;;;5236108;27;20059;-54
2021/11/10 10:49:44;;;;;;;5.25;2.53;;;22.80;49.10;;;;;;5244704;28;20042;-56
2021/11/10 10:52:19;;;;;;;5.00;3.25;;;22.80;49.10;;;;;;5238342;28;20530;-56
2021/11/10 10:54:51;;;;;;;4.50;2.85;;;22.80;49.20;;;;;;5267114;28;20047;-56
2021/11/10 10:57:42;;;;;;;4.05;2.50;;;22.80;49.20;;;;;;5267284;28;20051;-57
2021/11/10 11:00:14;;;;;;;3.90;2.58;;;22.80;49.30;;;;;;5243737;28;20058;-56
2021/11/10 11:02:47;;;;;;;4.53;2.70;;;22.80;49.30;;;;;;5265864;28;21336;-57
2021/11/10 11:05:43;;;;;;;4.23;2.93;;;22.80;49.30;;;;;;5268624;28;20047;-52
2021/11/10 11:08:47;;;;;;;7.00;2.90;;;22.80;49.20;;;;;;5257954;28;20047;-55
2021/11/10 11:11:34;;;;;;;5.60;2.95;;;22.80;49.20;;;;;;5256186;28;20492;-55
2021/11/10 11:14:36;;;;;;;4.25;2.38;;;22.80;49.30;;;;;;5260855;27;20051;-57
2021/11/10 11:17:19;;;;;;;3.28;2.55;;;22.80;49.30;;;;;;5258803;27;20043;-56
2021/11/10 11:20:06;;;;;;;5.63;2.45;;;22.80;49.40;;;;;;5263196;28;20139;-58
2021/11/10 11:22:53;;;;;;;5.13;2.58;;;22.80;49.40;;;;;;4558164;28;10000091;-57
2021/11/10 11:25:31;;;;;;;6.68;2.05;;;22.80;49.40;;;;;;5262992;28;20043;-56
2021/11/10 11:28:14;;;;;;;4.93;2.90;;;22.80;49.40;;;;;;5264881;28;20045;-55
2021/11/10 11:30:53;;;;;;;4.85;2.53;;;22.80;49.40;;;;;;5264752;28;20043;-58
2021/11/10 11:33:26;;;;;;;4.32;2.85;;;22.80;49.40;;;;;;5260862;28;20570;-58
2021/11/10 11:36:01;;;;;;;7.45;2.75;;;22.80;49.40;;;;;;5258896;28;20223;-54
2021/11/10 11:38:34;;;;;;;5.55;2.42;;;22.80;49.50;;;;;;5267386;28;20048;-56
2021/11/10 11:41:09;;;;;;;3.00;2.35;;;22.80;49.50;;;;;;5265386;28;20384;-57
2021/11/10 11:43:42;;;;;;;3.80;2.33;;;22.70;49.60;;;;;;5264308;28;20078;-58
2021/11/10 11:46:14;;;;;;;5.90;2.70;;;22.70;49.50;;;;;;5258193;28;20775;-54
2021/11/10 11:48:49;;;;;;;5.03;2.42;;;22.70;49.50;;;;;;5263198;28;20843;-56
2021/11/10 11:51:22;;;;;;;4.22;2.42;;;22.70;49.50;;;;;;5264619;28;21203;-57
2021/11/10 11:53:58;;;;;;;3.75;2.55;;;22.70;49.50;;;;;;5263548;28;20966;-58
2021/11/10 11:56:32;;;;;;;4.05;2.42;;;22.70;49.50;;;;;;5268047;28;20047;-56
2021/11/10 11:59:05;;;;;;;4.22;2.55;;;22.70;49.60;;;;;;5261480;28;20048;-55
2021/11/10 12:01:38;;;;;;;3.70;2.55;;;22.70;49.50;;;;;;5262085;28;20058;-55
2021/11/10 12:04:12;;;;;;;4.50;2.80;;;22.70;49.50;;;;;;5245764;28;20046;-55
2021/11/10 12:06:48;;;;;;;4.75;2.25;;;22.70;49.50;;;;;;5266724;28;20324;-57
2021/11/10 12:09:22;;;;;;;3.38;2.20;;;22.70;49.50;;;;;;5265145;27;20055;-57
2021/11/10 12:11:58;;;;;;;4.18;2.33;;;22.70;49.60;;;;;;5248373;28;20055;-57
2021/11/10 12:14:31;;;;;;;3.25;2.15;;;22.70;49.60;;;;;;5254208;28;25614;-53
2021/11/10 12:17:12;;;;;;;5.15;2.53;;;22.70;49.60;;;;;;5249772;28;20823;-56
2021/11/10 12:19:58;;;;;;;4.80;2.25;;;22.70;49.60;;;;;;5250689;28;20040;-58
2021/11/10 12:22:54;;;;;;;4.90;2.67;;;22.70;49.60;;;;;;5254837;28;20047;-57
2021/11/10 12:25:26;;;;;;;3.35;2.50;;;22.70;49.70;;;;;;5258047;28;20586;-56
2021/11/10 12:27:59;;;;;;;4.40;2.80;;;22.70;49.70;;;;;;5257559;28;20804;-56
2021/11/10 12:30:32;;;;;;;4.93;2.80;;;22.70;49.70;;;;;;5249073;27;20070;-56
2021/11/10 12:33:05;;;;;;;5.60;2.47;;;22.70;49.70;;;;;;5259059;27;20050;-56
2021/11/10 12:35:42;;;;;;;7.32;2.75;;;22.70;49.60;;;;;;5240829;28;20650;-55
2021/11/10 12:38:23;;;;;;;5.68;2.50;;;22.70;49.70;;;;;;5261585;28;20463;-55
2021/11/10 12:41:03;;;;;;;4.47;2.47;;;22.70;49.70;;;;;;5264608;28;20054;-57
2021/11/10 12:43:37;;;;;;;3.90;2.30;;;22.70;49.70;;;;;;5260726;28;20054;-57
2021/11/10 12:46:18;;;;;;;4.25;2.00;;;22.70;49.80;;;;;;5262377;28;20043;-53
2021/11/10 12:48:51;;;;;;;6.15;2.40;;;22.70;49.80;;;;;;5257576;28;20048;-55
2021/11/10 12:51:30;;;;;;;5.18;2.28;;;22.70;49.70;;;;;;5253668;28;20562;-56
2021/11/10 12:54:09;;;;;;;5.65;2.28;;;22.70;49.70;;;;;;5250893;28;20039;-58
2021/11/10 12:56:46;;;;;;;8.73;2.67;;;22.70;49.80;;;;;;5252497;28;20424;-54
2021/11/10 12:59:34;;;;;;;4.97;2.30;;;22.70;50.10;;;;;;5243151;28;20059;-58
2021/11/10 13:02:15;;;;;;;7.70;2.90;;;22.70;50.20;;;;;;5233293;28;20048;-54
2021/11/10 13:04:56;;;;;;;5.10;2.80;;;22.70;50.40;;;;;;5248594;28;20058;-57
2021/11/10 13:07:34;;;;;;;10.35;2.60;;;22.70;50.50;;;;;;5257865;28;20048;-58
2021/11/10 13:10:13;;;;;;;8.38;2.50;;;22.70;50.70;;;;;;5249787;28;20044;-56
2021/11/10 13:12:46;;;;;;;8.35;2.30;;;22.70;50.50;;;;;;5259969;28;20047;-56
2021/11/10 13:15:24;;;;;;;9.43;2.58;;;22.70;50.70;;;;;;5249501;28;20051;-56
2021/11/10 13:17:56;;;;;;;9.90;2.67;;;22.70;50.80;;;;;;5234574;28;20044;-56
2021/11/10 13:20:28;;;;;;;9.73;2.25;;;22.70;51.00;;;;;;5241906;28;20044;-55
2021/11/10 13:23:01;;;;;;;4.18;2.20;;;22.70;51.50;;;;;;5259650;28;20051;-54
2021/11/10 13:25:34;;;;;;;6.60;2.50;;;22.70;50.90;;;;;;5263266;28;20048;-54